createdAt,value
2023-04-10T00:02:00.453Z,10.27
2023-04-10T00:04:28.454Z,10.20
2023-04-10T00:06:55.567Z,9.73
2023-04-10T00:09:22.147Z,9.88
2023-04-10T00:11:48.692Z,9.85
2023-04-10T00:14:15.373Z,10.77
2023-04-10T00:16:41.868Z,8.95
2023-04-10T00:19:08.646Z,10.13
2023-04-10T00:21:35.066Z,9.80
2023-04-10T00:24:01.516Z,9.23
2023-04-10T00:26:27.991Z,8.70
2023-04-10T00:28:54.447Z,9.90
2023-04-10T00:31:20.922Z,9.07
2023-04-10T00:33:47.375Z,8.82
2023-04-10T00:36:13.975Z,9.45
2023-04-10T00:38:40.499Z,9.27
2023-04-10T00:41:07.148Z,9.25
2023-04-10T00:43:33.779Z,8.68
2023-04-10T00:46:00.815Z,9.35
2023-04-10T00:48:27.819Z,8.18
2023-04-10T00:50:54.433Z,7.63
2023-04-10T00:53:22.075Z,8.23
2023-04-10T00:55:50.347Z,7.78
2023-04-10T00:58:16.843Z,8.25
2023-04-10T01:00:43.280Z,7.97
2023-04-10T01:03:12.387Z,8.40
2023-04-10T01:05:47.509Z,7.30
2023-04-10T01:08:36.528Z,7.13
2023-04-10T01:11:13.448Z,7.80
2023-04-10T01:14:05.332Z,7.60
2023-04-10T01:16:41.557Z,7.30
2023-04-10T01:20:12.929Z,6.40
2023-04-10T01:23:03.970Z,6.35
2023-04-10T01:26:01.375Z,6.22
2023-04-10T01:28:48.178Z,6.43
2023-04-10T01:31:26.709Z,5.90
2023-04-10T01:33:59.954Z,6.28
2023-04-10T01:36:30.298Z,6.20
2023-04-10T01:38:58.160Z,5.90
2023-04-10T01:41:26.801Z,6.43
2023-04-10T01:43:55.083Z,5.63
2023-04-10T01:46:23.621Z,6.47
2023-04-10T01:48:52.184Z,5.78
2023-04-10T01:51:18.779Z,5.50
2023-04-10T01:53:47.156Z,6.05
2023-04-10T01:56:15.577Z,5.83
2023-04-10T01:58:42.526Z,5.53
2023-04-10T02:01:19.166Z,5.70
2023-04-10T02:03:53.303Z,5.28
2023-04-10T02:06:44.722Z,4.68
2023-04-10T02:09:23.373Z,5.47
2023-04-10T02:12:01.433Z,5.05
2023-04-10T02:14:31.574Z,5.35
2023-04-10T02:16:59.656Z,5.60
2023-04-10T02:19:28.442Z,5.13
2023-04-10T02:21:56.855Z,5.33
2023-04-10T02:24:23.629Z,4.80
2023-04-10T02:26:51.953Z,5.47
2023-04-10T02:29:19.132Z,5.15
2023-04-10T02:31:46.489Z,4.65
2023-04-10T02:34:13.061Z,5.60
2023-04-10T02:36:40.007Z,5.50
2023-04-10T02:39:06.893Z,5.20
2023-04-10T02:41:33.532Z,5.15
2023-04-10T02:43:59.987Z,5.40
2023-04-10T02:46:26.446Z,4.83
2023-04-10T02:48:53.576Z,4.90
2023-04-10T02:51:20.075Z,5.60
2023-04-10T02:53:47.591Z,5.25
2023-04-10T02:56:14.097Z,4.90
2023-04-10T02:58:40.537Z,4.80
2023-04-10T03:01:07.286Z,4.93
2023-04-10T03:03:33.778Z,5.00
2023-04-10T03:06:00.449Z,4.78
2023-04-10T03:08:27.052Z,4.80
2023-04-10T03:10:53.471Z,5.60
2023-04-10T03:13:19.956Z,5.30
2023-04-10T03:15:46.948Z,5.25
2023-04-10T03:18:13.498Z,5.53
2023-04-10T03:20:39.977Z,5.13
2023-04-10T03:23:07.162Z,5.73
2023-04-10T03:25:36.980Z,5.78
2023-04-10T03:28:03.679Z,5.53
2023-04-10T03:30:30.305Z,5.10
2023-04-10T03:32:56.853Z,5.18
2023-04-10T03:35:23.448Z,5.67
2023-04-10T03:37:49.848Z,5.28
2023-04-10T03:40:16.268Z,5.10
2023-04-10T03:42:42.709Z,5.07
2023-04-10T03:45:09.773Z,5.97
2023-04-10T03:47:36.419Z,5.30
2023-04-10T03:50:03.113Z,4.72
2023-04-10T03:52:29.584Z,4.60
2023-04-10T03:54:56.258Z,5.43
2023-04-10T03:57:22.860Z,5.25
2023-04-10T03:59:49.383Z,5.60
2023-04-10T04:02:16.159Z,4.90
2023-04-10T04:04:42.778Z,5.03
2023-04-10T04:07:10.137Z,5.32
2023-04-10T04:09:36.864Z,5.60
2023-04-10T04:12:03.446Z,6.50
2023-04-10T04:14:29.869Z,5.10
2023-04-10T04:16:56.426Z,4.97
2023-04-10T04:19:22.961Z,5.80
2023-04-10T04:21:49.408Z,4.80
2023-04-10T04:24:15.831Z,5.73
2023-04-10T04:26:42.292Z,5.60
2023-04-10T04:29:08.706Z,5.22
2023-04-10T04:31:35.294Z,5.15
2023-04-10T04:34:01.852Z,5.93
2023-04-10T04:36:28.469Z,5.63
2023-04-10T04:38:55.026Z,6.70
2023-04-10T04:41:22.088Z,6.22
2023-04-10T04:43:49.480Z,5.57
2023-04-10T04:46:16.056Z,5.88
2023-04-10T04:48:42.609Z,5.97
2023-04-10T04:51:09.173Z,5.90
2023-04-10T04:53:35.791Z,5.50
2023-04-10T04:56:03.083Z,5.78
2023-04-10T04:58:29.571Z,5.97
2023-04-10T05:00:56.054Z,5.83
2023-04-10T05:03:22.799Z,5.80
2023-04-10T05:05:49.556Z,5.45
2023-04-10T05:08:16.006Z,4.85
2023-04-10T05:10:42.448Z,6.55
2023-04-10T05:13:08.870Z,5.80
2023-04-10T05:15:35.569Z,5.88
2023-04-10T05:18:02.097Z,5.35
2023-04-10T05:20:28.647Z,6.13
2023-04-10T05:22:55.299Z,5.70
2023-04-10T05:25:21.775Z,5.60
2023-04-10T05:27:48.645Z,5.72
2023-04-10T05:30:15.373Z,5.95
2023-04-10T05:32:41.940Z,5.90
2023-04-10T05:35:08.974Z,5.43
2023-04-10T05:37:35.439Z,5.50
2023-04-10T05:40:01.902Z,5.70
2023-04-10T05:42:28.514Z,5.28
2023-04-10T05:44:54.955Z,5.57
2023-04-10T05:47:21.449Z,5.88
2023-04-10T05:49:47.880Z,5.57
2023-04-10T05:52:14.309Z,6.15
2023-04-10T05:54:40.751Z,4.93
2023-04-10T05:57:07.288Z,5.45
2023-04-10T05:59:33.818Z,5.50
2023-04-10T06:02:00.305Z,5.87
2023-04-10T06:04:26.951Z,5.45
2023-04-10T06:06:53.903Z,5.45
2023-04-10T06:09:20.469Z,5.97
2023-04-10T06:11:47.147Z,7.13
2023-04-10T06:14:13.606Z,6.07
2023-04-10T06:16:40.347Z,6.30
2023-04-10T06:19:06.781Z,6.15
2023-04-10T06:21:33.324Z,5.63
2023-04-10T06:23:59.806Z,6.43
2023-04-10T06:26:26.501Z,6.23
2023-04-10T06:28:53.272Z,5.68
2023-04-10T06:31:22.076Z,5.38
2023-04-10T06:33:51.593Z,5.47
2023-04-10T06:36:18.079Z,6.00
2023-04-10T06:38:44.484Z,6.77
2023-04-10T06:41:11.535Z,6.28
2023-04-10T06:43:39.527Z,6.05
2023-04-10T06:46:06.360Z,6.00
2023-04-10T06:48:33.699Z,5.90
2023-04-10T06:51:03.053Z,5.50
2023-04-10T06:53:30.142Z,6.13
2023-04-10T06:55:57.119Z,5.95
2023-04-10T06:58:24.532Z,5.82
2023-04-10T07:00:51.154Z,6.05
2023-04-10T07:03:17.768Z,5.33
2023-04-10T07:05:44.226Z,5.13
2023-04-10T07:08:10.980Z,5.45
2023-04-10T07:10:37.455Z,5.13
2023-04-10T07:13:03.908Z,6.15
2023-04-10T07:15:30.710Z,6.00
2023-04-10T07:17:57.220Z,5.47
2023-04-10T07:20:23.793Z,5.43
2023-04-10T07:22:50.392Z,5.50
2023-04-10T07:25:18.357Z,5.57
2023-04-10T07:27:44.855Z,5.37
2023-04-10T07:30:13.497Z,5.13
2023-04-10T07:32:42.278Z,5.90
2023-04-10T07:35:09.487Z,4.45
2023-04-10T07:37:36.048Z,5.30
2023-04-10T07:40:02.914Z,5.37
2023-04-10T07:42:29.906Z,5.45
2023-04-10T07:44:57.262Z,5.50
2023-04-10T07:47:23.718Z,5.28
2023-04-10T07:49:50.335Z,4.88
2023-04-10T07:52:16.871Z,5.67
2023-04-10T07:54:43.419Z,5.47
2023-04-10T07:57:09.871Z,5.38
2023-04-10T07:59:36.334Z,6.10
2023-04-10T08:02:02.937Z,6.72
2023-04-10T08:04:29.749Z,6.17
2023-04-10T08:06:56.480Z,5.80
2023-04-10T08:09:22.912Z,5.47
2023-04-10T08:11:49.371Z,5.35
2023-04-10T08:14:17.980Z,5.88
2023-04-10T08:16:45.278Z,5.53
2023-04-10T08:19:11.957Z,6.35
2023-04-10T08:21:38.397Z,5.95
2023-04-10T08:24:05.313Z,6.13
2023-04-10T08:26:32.135Z,5.93
2023-04-10T08:29:00.789Z,6.13
2023-04-10T08:31:28.926Z,6.10
2023-04-10T08:33:55.900Z,5.90
2023-04-10T08:36:22.622Z,5.40
2023-04-10T08:38:49.272Z,5.78
2023-04-10T08:41:20.040Z,5.83
2023-04-10T08:43:47.127Z,6.40
2023-04-10T08:46:14.687Z,6.25
2023-04-10T08:48:53.290Z,6.22
2023-04-10T08:51:26.409Z,6.07
2023-04-10T08:53:58.204Z,6.10
2023-04-10T08:56:25.156Z,6.00
2023-04-10T08:58:52.255Z,6.40
2023-04-10T09:01:21.158Z,6.75
2023-04-10T09:03:48.719Z,6.70
2023-04-10T09:06:15.612Z,6.63
2023-04-10T09:08:42.094Z,7.18
2023-04-10T09:11:08.971Z,6.72
2023-04-10T09:13:43.922Z,6.60
2023-04-10T09:16:11.650Z,6.43
2023-04-10T09:18:45.736Z,6.40
2023-04-10T09:21:18.318Z,6.25
2023-04-10T09:23:45.924Z,6.45
2023-04-10T09:26:29.669Z,6.10
2023-04-10T09:29:04.272Z,6.43
2023-04-10T09:31:38.513Z,6.97
2023-04-10T09:34:18.328Z,6.38
2023-04-10T09:36:52.960Z,6.07
2023-04-10T09:39:19.561Z,5.60
2023-04-10T09:41:57.522Z,7.63
2023-04-10T09:44:32.489Z,6.63
2023-04-10T09:47:15.348Z,5.85
2023-04-10T09:49:52.619Z,6.00
2023-04-10T09:52:21.763Z,6.07
2023-04-10T09:54:48.426Z,5.95
2023-04-10T09:57:19.167Z,5.93
2023-04-10T09:59:51.688Z,5.85
2023-04-10T10:02:19.788Z,6.10
2023-04-10T10:04:47.622Z,5.75
2023-04-10T10:07:19.096Z,6.15
2023-04-10T10:09:49.046Z,5.20
2023-04-10T10:12:27.266Z,5.53
2023-04-10T10:15:11.617Z,6.00
2023-04-10T10:17:45.560Z,6.05
2023-04-10T10:20:13.573Z,5.97
2023-04-10T10:22:40.672Z,5.90
2023-04-10T10:25:08.753Z,5.90
2023-04-10T10:27:37.899Z,6.20
2023-04-10T10:30:20.738Z,5.63
2023-04-10T10:32:56.114Z,6.10
2023-04-10T10:35:25.548Z,6.53
2023-04-10T10:37:55.139Z,6.30
2023-04-10T10:40:33.834Z,6.28
2023-04-10T10:43:14.724Z,5.85
2023-04-10T10:45:48.468Z,5.68
2023-04-10T10:48:15.394Z,5.40
2023-04-10T10:50:56.420Z,5.72
2023-04-10T10:53:45.074Z,5.78
2023-04-10T10:56:23.437Z,6.15
2023-04-10T10:58:52.844Z,5.28
2023-04-10T11:01:21.773Z,5.10
2023-04-10T11:03:48.846Z,5.97
2023-04-10T11:06:20.328Z,5.13
2023-04-10T11:08:53.092Z,4.97
2023-04-10T11:11:25.449Z,5.60
2023-04-10T11:13:52.124Z,5.40
2023-04-10T11:16:23.442Z,5.03
2023-04-10T11:18:59.205Z,5.72
2023-04-10T11:21:29.133Z,4.95
2023-04-10T11:23:58.442Z,5.75
2023-04-10T11:26:38.226Z,6.13
2023-04-10T11:29:19.714Z,4.95
2023-04-10T11:32:06.525Z,5.47
2023-04-10T11:34:33.379Z,5.28
2023-04-10T11:37:02.862Z,5.75
2023-04-10T11:39:30.864Z,5.23
2023-04-10T11:41:57.806Z,5.57
2023-04-10T11:44:35.384Z,5.28
2023-04-10T11:47:01.993Z,5.30
2023-04-10T11:49:31.783Z,5.50
2023-04-10T11:51:58.510Z,5.57
2023-04-10T11:54:27.122Z,6.10
2023-04-10T11:56:59.782Z,5.38
2023-04-10T11:59:26.824Z,5.18
2023-04-10T12:01:56.011Z,4.90
2023-04-10T12:04:24.162Z,5.20
2023-04-10T12:06:53.316Z,5.50
2023-04-10T12:09:21.198Z,4.90
2023-04-10T12:12:05.281Z,5.53
2023-04-10T12:14:41.863Z,4.43
2023-04-10T12:17:10.508Z,5.03
2023-04-10T12:19:39.273Z,4.50
2023-04-10T12:22:06.684Z,4.97
2023-04-10T12:24:54.699Z,4.80
2023-04-10T12:27:26.573Z,5.20
2023-04-10T12:29:58.617Z,4.80
2023-04-10T12:32:27.505Z,4.72
2023-04-10T12:34:57.580Z,5.13
2023-04-10T12:37:49.217Z,4.10
2023-04-10T12:40:16.017Z,3.17
2023-04-10T12:42:43.045Z,3.80
2023-04-10T12:45:13.675Z,4.25
2023-04-10T12:47:48.854Z,3.40
2023-04-10T12:50:17.047Z,3.50
2023-04-10T12:52:46.509Z,3.53
2023-04-10T12:55:13.340Z,3.00
2023-04-10T12:57:45.900Z,3.15
2023-04-10T13:00:17.990Z,3.15
2023-04-10T13:02:45.810Z,3.35
2023-04-10T13:05:12.761Z,3.08
2023-04-10T13:07:40.001Z,3.30
2023-04-10T13:10:07.545Z,3.30
2023-04-10T13:12:38.957Z,2.70
2023-04-10T13:15:07.423Z,3.33
2023-04-10T13:17:34.243Z,3.22
2023-04-10T13:20:00.857Z,3.50
2023-04-10T13:22:27.401Z,3.30
2023-04-10T13:24:53.866Z,3.50
2023-04-10T13:27:20.370Z,3.75
2023-04-10T13:29:46.841Z,3.88
2023-04-10T13:32:13.298Z,3.37
2023-04-10T13:34:39.736Z,3.28
2023-04-10T13:37:06.250Z,3.80
2023-04-10T13:39:32.779Z,3.20
2023-04-10T13:41:59.724Z,3.67
2023-04-10T13:44:26.925Z,3.50
2023-04-10T13:46:53.788Z,3.88
2023-04-10T13:49:22.093Z,3.22
2023-04-10T13:51:48.886Z,3.55
2023-04-10T13:54:17.324Z,3.78
2023-04-10T13:56:44.998Z,5.23
2023-04-10T13:59:11.470Z,4.63
2023-04-10T14:01:38.180Z,4.20
2023-04-10T14:04:05.306Z,4.32
2023-04-10T14:06:32.311Z,3.35
2023-04-10T14:08:58.813Z,3.80
2023-04-10T14:11:26.186Z,3.22
2023-04-10T14:13:52.986Z,3.60
2023-04-10T14:16:19.814Z,3.92
2023-04-10T14:18:46.309Z,3.88
2023-04-10T14:21:12.945Z,4.03
2023-04-10T14:23:40.785Z,3.92
2023-04-10T14:26:07.422Z,4.45
2023-04-10T14:28:34.059Z,3.92
2023-04-10T14:31:01.114Z,3.10
2023-04-10T14:33:27.757Z,3.37
2023-04-10T14:35:54.856Z,3.72
2023-04-10T14:38:21.575Z,4.00
2023-04-10T14:40:50.392Z,3.67
2023-04-10T14:43:17.516Z,3.80
2023-04-10T14:45:44.706Z,3.43
2023-04-10T14:48:12.989Z,3.70
2023-04-10T14:50:40.541Z,4.10
2023-04-10T14:53:09.962Z,3.90
2023-04-10T14:55:37.419Z,3.60
2023-04-10T14:58:04.497Z,3.87
2023-04-10T15:00:31.335Z,3.78
2023-04-10T15:02:58.170Z,4.35
2023-04-10T15:05:25.965Z,3.75
2023-04-10T15:07:52.470Z,3.58
2023-04-10T15:10:18.995Z,3.20
2023-04-10T15:12:45.581Z,3.85
2023-04-10T15:15:12.745Z,3.67
2023-04-10T15:17:39.465Z,4.03
2023-04-10T15:20:06.458Z,3.67
2023-04-10T15:22:34.345Z,5.33
2023-04-10T15:25:01.324Z,4.40
2023-04-10T15:27:27.777Z,4.05
2023-04-10T15:29:54.297Z,5.00
2023-04-10T15:32:20.892Z,4.13
2023-04-10T15:34:47.551Z,3.73
2023-04-10T15:37:14.059Z,4.07
2023-04-10T15:39:40.758Z,4.15
2023-04-10T15:42:08.297Z,4.15
2023-04-10T15:44:34.926Z,3.70
2023-04-10T15:47:01.532Z,4.37
2023-04-10T15:49:37.249Z,4.13
2023-04-10T15:52:08.319Z,3.22
2023-04-10T15:54:35.414Z,3.85
2023-04-10T15:57:02.490Z,4.20
2023-04-10T15:59:29.338Z,3.93
2023-04-10T16:01:56.145Z,4.88
2023-04-10T16:04:23.106Z,4.63
2023-04-10T16:06:49.719Z,4.35
2023-04-10T16:09:25.466Z,4.00
2023-04-10T16:11:53.368Z,3.87
2023-04-10T16:14:20.078Z,4.15
2023-04-10T16:16:46.841Z,4.10
2023-04-10T16:19:13.292Z,4.00
2023-04-10T16:21:40.063Z,3.47
2023-04-10T16:24:06.955Z,4.20
2023-04-10T16:26:33.480Z,4.05
2023-04-10T16:28:59.916Z,4.63
2023-04-10T16:31:26.470Z,4.47
2023-04-10T16:33:53.068Z,4.07
2023-04-10T16:36:19.680Z,4.37
2023-04-10T16:38:49.643Z,4.30
2023-04-10T16:41:20.878Z,4.78
2023-04-10T16:43:47.718Z,5.15
2023-04-10T16:46:14.447Z,5.13
2023-04-10T16:48:40.979Z,4.77
2023-04-10T16:51:14.660Z,6.00
2023-04-10T16:53:41.213Z,5.22
2023-04-10T16:56:08.063Z,5.38
2023-04-10T16:58:36.007Z,5.72
2023-04-10T17:01:25.064Z,5.57
2023-04-10T17:03:52.420Z,5.07
2023-04-10T17:06:19.110Z,5.28
2023-04-10T17:08:45.764Z,5.57
2023-04-10T17:11:15.909Z,5.72
2023-04-10T17:13:42.557Z,4.90
2023-04-10T17:16:09.819Z,5.00
2023-04-10T17:18:36.580Z,3.55
2023-04-10T17:21:03.214Z,3.78
2023-04-10T17:23:29.766Z,4.65
2023-04-10T17:25:56.292Z,4.60
2023-04-10T17:28:22.850Z,4.63
2023-04-10T17:30:49.355Z,5.18
2023-04-10T17:33:15.848Z,5.10
2023-04-10T17:35:42.477Z,5.35
2023-04-10T17:38:08.949Z,4.90
2023-04-10T17:40:37.082Z,5.10
2023-04-10T17:43:03.585Z,4.95
2023-04-10T17:45:30.130Z,4.60
2023-04-10T17:47:56.745Z,4.50
2023-04-10T17:50:23.398Z,3.83
2023-04-10T17:52:49.846Z,3.10
2023-04-10T17:55:20.511Z,3.90
2023-04-10T17:57:48.880Z,3.72
2023-04-10T18:00:16.872Z,3.60
2023-04-10T18:02:48.330Z,3.20
2023-04-10T18:05:15.380Z,3.17
2023-04-10T18:07:41.866Z,3.53
2023-04-10T18:10:11.192Z,4.35
2023-04-10T18:12:38.094Z,4.80
2023-04-10T18:15:05.243Z,4.00
2023-04-10T18:17:31.886Z,3.50
2023-04-10T18:19:58.405Z,3.83
2023-04-10T18:22:24.852Z,3.03
2023-04-10T18:24:51.454Z,3.58
2023-04-10T18:27:17.906Z,4.03
2023-04-10T18:29:45.008Z,3.80
2023-04-10T18:32:11.518Z,5.00
2023-04-10T18:34:38.111Z,4.07
2023-04-10T18:37:04.703Z,3.55
2023-04-10T18:39:31.516Z,3.20
2023-04-10T18:41:58.097Z,3.80
2023-04-10T18:44:24.644Z,3.50
2023-04-10T18:47:01.414Z,3.33
2023-04-10T18:49:31.261Z,2.78
2023-04-10T18:51:57.706Z,3.13
2023-04-10T18:54:27.090Z,3.42
2023-04-10T18:56:53.572Z,3.30
2023-04-10T18:59:20.172Z,3.35
2023-04-10T19:01:46.800Z,3.65
2023-04-10T19:04:13.390Z,2.93
2023-04-10T19:06:41.029Z,3.00
2023-04-10T19:09:10.502Z,2.95
2023-04-10T19:11:38.495Z,3.03
2023-04-10T19:14:06.011Z,3.55
2023-04-10T19:19:04.509Z,3.22
2023-04-10T19:21:31.730Z,2.78
2023-04-10T19:23:58.508Z,2.75
2023-04-10T19:26:25.034Z,2.78
2023-04-10T19:28:51.492Z,2.70
2023-04-10T19:31:18.022Z,2.72
2023-04-10T19:33:44.529Z,2.85
2023-04-10T19:36:11.056Z,2.70
2023-04-10T19:38:37.581Z,2.67
2023-04-10T19:41:13.275Z,2.90
2023-04-10T19:43:39.768Z,2.58
2023-04-10T19:46:06.494Z,2.97
2023-04-10T19:48:33.004Z,3.15
2023-04-10T19:51:05.772Z,3.15
2023-04-10T19:53:32.166Z,3.13
2023-04-10T19:55:58.567Z,3.25
2023-04-10T19:58:39.291Z,2.97
2023-04-10T20:01:08.087Z,3.55
2023-04-10T20:03:35.823Z,3.95
2023-04-10T20:06:04.018Z,3.27
2023-04-10T20:08:30.544Z,3.60
2023-04-10T20:10:58.274Z,3.47
2023-04-10T20:13:25.098Z,3.78
2023-04-10T20:15:51.891Z,2.83
2023-04-10T20:18:18.347Z,3.60
2023-04-10T20:20:44.972Z,3.97
2023-04-10T20:23:12.360Z,2.88
2023-04-10T20:25:39.068Z,3.42
2023-04-10T20:28:06.191Z,3.75
2023-04-10T20:30:32.800Z,3.20
2023-04-10T20:32:59.366Z,4.20
2023-04-10T20:35:26.528Z,3.20
2023-04-10T20:37:53.017Z,3.63
2023-04-10T20:40:19.899Z,3.58
2023-04-10T20:42:46.374Z,3.30
2023-04-10T20:45:12.950Z,3.95
2023-04-10T20:47:39.991Z,3.53
2023-04-10T20:50:07.697Z,3.65
2023-04-10T20:52:34.167Z,3.05
2023-04-10T20:55:00.839Z,3.20
2023-04-10T20:57:27.394Z,3.50
2023-04-10T20:59:53.868Z,3.20
2023-04-10T21:02:20.416Z,3.15
2023-04-10T21:04:46.922Z,3.10
2023-04-10T21:07:13.399Z,3.10
2023-04-10T21:09:39.852Z,3.22
2023-04-10T21:12:06.372Z,2.97
2023-04-10T21:14:32.793Z,3.17
2023-04-10T21:16:59.337Z,3.40
2023-04-10T21:19:25.833Z,3.27
2023-04-10T21:21:52.290Z,3.13
2023-04-10T21:24:18.722Z,2.97
2023-04-10T21:26:45.680Z,3.42
2023-04-10T21:29:12.132Z,4.50
2023-04-10T21:31:38.558Z,3.27
2023-04-10T21:34:05.177Z,3.20
2023-04-10T21:36:32.520Z,3.30
2023-04-10T21:38:58.968Z,3.28
2023-04-10T21:41:27.004Z,3.05
2023-04-10T21:43:56.492Z,3.50
2023-04-10T21:46:23.319Z,3.15
2023-04-10T21:48:49.812Z,3.05
2023-04-10T21:51:16.258Z,3.50
2023-04-10T21:53:42.797Z,3.38
2023-04-10T21:56:09.235Z,2.80
2023-04-10T21:58:35.698Z,2.90
2023-04-10T22:01:02.321Z,3.20
2023-04-10T22:03:29.007Z,2.90
2023-04-10T22:05:55.533Z,3.00
2023-04-10T22:08:22.114Z,3.17
2023-04-10T22:10:48.661Z,3.15
2023-04-10T22:13:27.299Z,3.40
2023-04-10T22:15:56.536Z,4.00
2023-04-10T22:18:23.081Z,3.13
2023-04-10T22:20:49.513Z,3.17
2023-04-10T22:23:15.997Z,3.40
2023-04-10T22:25:42.386Z,3.00
2023-04-10T22:28:08.871Z,2.38
2023-04-10T22:30:35.594Z,1.40
2023-04-10T22:33:02.149Z,2.00
2023-04-10T22:35:28.838Z,1.08
2023-04-10T22:37:56.856Z,1.20
2023-04-10T22:40:23.360Z,1.20
2023-04-10T22:42:49.924Z,1.15
2023-04-10T22:45:16.416Z,1.27
2023-04-10T22:47:42.848Z,1.02
2023-04-10T22:50:09.406Z,0.80
2023-04-10T22:52:36.034Z,1.40
2023-04-10T22:55:03.099Z,0.80
2023-04-10T22:57:29.591Z,0.70
2023-04-10T22:59:56.065Z,0.95
2023-04-10T23:02:22.649Z,0.70
2023-04-10T23:04:49.287Z,1.42
2023-04-10T23:07:16.206Z,0.70
2023-04-10T23:09:42.709Z,0.80
2023-04-10T23:12:09.119Z,1.17
2023-04-10T23:14:35.985Z,0.90
2023-04-10T23:17:03.049Z,0.90
2023-04-10T23:19:29.536Z,0.85
2023-04-10T23:21:55.997Z,0.70
2023-04-10T23:24:22.419Z,1.08
2023-04-10T23:26:48.913Z,0.90
2023-04-10T23:29:15.466Z,0.82
2023-04-10T23:31:41.959Z,0.90
2023-04-10T23:34:08.387Z,0.97
2023-04-10T23:36:34.808Z,0.73
2023-04-10T23:39:01.221Z,1.00
2023-04-10T23:41:27.673Z,0.95
2023-04-10T23:43:54.654Z,0.73
2023-04-10T23:46:21.170Z,1.10
2023-04-10T23:48:47.617Z,1.30
2023-04-10T23:51:14.025Z,1.95
2023-04-10T23:53:40.467Z,1.40
2023-04-10T23:56:07.858Z,1.65
2023-04-10T23:58:34.387Z,1.50
